createdAt,value
2018-07-19T00:01:26.272Z,6.83
2018-07-19T00:03:54.947Z,6.80
2018-07-19T00:06:23.638Z,6.90
2018-07-19T00:08:52.325Z,7.73
2018-07-19T00:11:20.980Z,6.87
2018-07-19T00:13:49.706Z,6.70
2018-07-19T00:16:18.414Z,7.17
2018-07-19T00:18:47.403Z,6.97
2018-07-19T00:21:18.897Z,7.20
2018-07-19T00:23:47.496Z,7.13
2018-07-19T00:26:16.210Z,7.30
2018-07-19T00:28:45.404Z,7.87
2018-07-19T00:31:14.038Z,8.33
2018-07-19T00:33:42.633Z,7.30
2018-07-19T00:36:11.238Z,7.23
2018-07-19T00:38:39.938Z,7.17
2018-07-19T00:41:08.965Z,7.30
2018-07-19T00:43:37.714Z,7.80
2018-07-19T00:46:06.384Z,8.20
2018-07-19T00:48:35.014Z,8.00
2018-07-19T00:51:03.645Z,8.07
2018-07-19T00:53:32.287Z,7.97
2018-07-19T00:56:00.920Z,7.20
2018-07-19T00:58:29.509Z,7.83
2018-07-19T01:00:58.174Z,7.87
2018-07-19T01:03:26.813Z,7.40
2018-07-19T01:05:55.432Z,7.40
2018-07-19T01:08:24.116Z,7.00
2018-07-19T01:10:52.737Z,7.20
2018-07-19T01:13:21.407Z,7.53
2018-07-19T01:15:50.013Z,7.47
2018-07-19T01:18:18.655Z,7.03
2018-07-19T01:20:47.295Z,7.13
2018-07-19T01:23:15.897Z,7.30
2018-07-19T01:25:44.530Z,7.20
2018-07-19T01:28:13.194Z,8.13
2018-07-19T01:30:41.828Z,7.40
2018-07-19T01:33:10.453Z,7.03
2018-07-19T01:35:39.049Z,6.90
2018-07-19T01:38:07.721Z,7.47
2018-07-19T01:40:36.296Z,6.90
2018-07-19T01:43:05.488Z,6.53
2018-07-19T01:45:34.150Z,6.10
2018-07-19T01:48:02.767Z,5.33
2018-07-19T01:50:31.372Z,6.90
2018-07-19T01:53:00.820Z,6.10
2018-07-19T01:55:29.513Z,5.50
2018-07-19T01:57:58.193Z,5.80
2018-07-19T02:00:26.893Z,5.50
2018-07-19T02:02:55.505Z,5.80
2018-07-19T02:05:24.146Z,5.40
2018-07-19T02:07:52.840Z,5.60
2018-07-19T02:10:21.529Z,5.60
2018-07-19T02:12:50.160Z,5.67
2018-07-19T02:15:18.797Z,5.93
2018-07-19T02:17:47.410Z,5.53
2018-07-19T02:20:16.062Z,6.30
2018-07-19T02:22:44.773Z,5.77
2018-07-19T02:25:13.423Z,5.90
2018-07-19T02:27:42.064Z,5.20
2018-07-19T02:30:10.706Z,5.10
2018-07-19T02:32:40.160Z,5.30
2018-07-19T02:35:08.973Z,5.73
2018-07-19T02:37:37.570Z,5.70
2018-07-19T02:40:06.191Z,5.50
2018-07-19T02:42:34.810Z,5.70
2018-07-19T02:45:03.465Z,5.47
2018-07-19T02:47:32.105Z,5.17
2018-07-19T02:50:00.799Z,5.77
2018-07-19T02:52:30.060Z,5.17
2018-07-19T02:54:58.677Z,5.40
2018-07-19T02:57:27.289Z,5.73
2018-07-19T02:59:55.960Z,5.87
2018-07-19T03:02:24.631Z,5.03
2018-07-19T03:04:53.266Z,5.10
2018-07-19T03:07:21.929Z,4.93
2018-07-19T03:09:50.616Z,5.23
2018-07-19T03:12:19.290Z,4.90
2018-07-19T03:14:49.020Z,5.17
2018-07-19T03:17:17.725Z,5.03
2018-07-19T03:19:46.363Z,5.30
2018-07-19T03:22:15.007Z,5.20
2018-07-19T03:24:43.661Z,4.97
2018-07-19T03:27:12.341Z,5.63
2018-07-19T03:29:40.990Z,4.50
2018-07-19T03:32:09.715Z,5.37
2018-07-19T03:34:38.314Z,4.93
2018-07-19T03:37:06.959Z,5.13
2018-07-19T03:39:35.570Z,5.10
2018-07-19T03:42:04.224Z,5.77
2018-07-19T03:44:32.832Z,4.77
2018-07-19T03:47:01.592Z,5.00
2018-07-19T03:49:30.219Z,5.17
2018-07-19T03:51:59.454Z,5.23
2018-07-19T03:54:28.113Z,5.47
2018-07-19T03:56:56.721Z,5.23
2018-07-19T03:59:25.388Z,5.10
2018-07-19T04:01:54.077Z,5.00
2018-07-19T04:04:22.678Z,5.03
2018-07-19T04:06:51.322Z,5.30
2018-07-19T04:09:19.946Z,6.13
2018-07-19T04:11:48.601Z,5.73
2018-07-19T04:14:17.257Z,5.33
2018-07-19T04:16:45.874Z,4.37
2018-07-19T04:19:14.472Z,4.80
2018-07-19T04:21:43.085Z,5.47
2018-07-19T04:24:12.483Z,4.10
2018-07-19T04:26:41.089Z,4.90
2018-07-19T04:29:09.717Z,4.67
2018-07-19T04:31:38.349Z,4.80
2018-07-19T04:34:07.377Z,4.90
2018-07-19T04:36:35.969Z,5.00
2018-07-19T04:39:06.289Z,5.40
2018-07-19T04:41:34.941Z,4.90
2018-07-19T04:44:03.560Z,5.13
2018-07-19T04:46:32.203Z,4.80
2018-07-19T04:49:00.837Z,5.63
2018-07-19T04:51:29.534Z,4.73
2018-07-19T04:53:58.159Z,4.60
2018-07-19T04:56:26.806Z,5.40
2018-07-19T04:58:56.093Z,5.10
2018-07-19T05:01:24.941Z,5.30
2018-07-19T05:03:53.590Z,4.57
2018-07-19T05:06:22.213Z,4.07
2018-07-19T05:08:50.861Z,4.93
2018-07-19T05:11:19.989Z,4.97
2018-07-19T05:13:48.627Z,4.97
2018-07-19T05:16:17.822Z,4.90
2018-07-19T05:18:46.521Z,5.23
2018-07-19T05:21:15.763Z,5.60
2018-07-19T05:23:44.806Z,5.00
2018-07-19T05:26:14.164Z,4.80
2018-07-19T05:28:42.789Z,5.10
2018-07-19T05:31:11.451Z,5.07
2018-07-19T05:33:40.140Z,4.63
2018-07-19T05:36:09.402Z,4.97
2018-07-19T05:38:38.106Z,5.20
2018-07-19T05:41:07.074Z,5.40
2018-07-19T05:43:35.742Z,5.17
2018-07-19T05:46:04.425Z,5.20
2018-07-19T05:48:33.210Z,5.17
2018-07-19T05:51:01.975Z,5.60
2018-07-19T05:53:30.649Z,5.43
2018-07-19T05:55:59.402Z,4.90
2018-07-19T05:58:28.247Z,5.47
2018-07-19T06:00:56.921Z,4.50
2018-07-19T06:03:26.393Z,5.40
2018-07-19T06:05:57.772Z,5.90
2018-07-19T06:08:26.896Z,5.07
2018-07-19T06:10:55.544Z,5.70
2018-07-19T06:13:25.528Z,5.90
2018-07-19T06:15:54.354Z,5.97
2018-07-19T06:18:23.057Z,5.47
2018-07-19T06:20:51.749Z,5.43
2018-07-19T06:23:20.413Z,5.07
2018-07-19T06:25:49.104Z,5.60
2018-07-19T06:28:17.841Z,5.57
2018-07-19T06:30:46.410Z,5.53
2018-07-19T06:33:15.730Z,5.70
2018-07-19T06:35:44.423Z,5.63
2018-07-19T06:38:13.162Z,5.20
2018-07-19T06:40:42.043Z,5.13
2018-07-19T06:43:11.045Z,4.93
2018-07-19T06:45:39.883Z,6.20
2018-07-19T06:48:08.577Z,5.60
2018-07-19T06:50:37.764Z,5.77
2018-07-19T06:53:13.885Z,5.40
2018-07-19T06:55:42.516Z,5.40
2018-07-19T06:58:11.257Z,5.20
2018-07-19T07:00:40.630Z,5.40
2018-07-19T07:03:09.276Z,5.90
2018-07-19T07:05:37.878Z,5.67
2018-07-19T07:08:06.685Z,4.83
2018-07-19T07:10:35.453Z,5.60
2018-07-19T07:13:04.234Z,4.83
2018-07-19T07:15:32.886Z,5.63
2018-07-19T07:18:01.522Z,5.23
2018-07-19T07:20:30.161Z,5.93
2018-07-19T07:22:58.776Z,5.33
2018-07-19T07:25:27.496Z,6.07
2018-07-19T07:27:56.409Z,5.70
2018-07-19T07:30:25.276Z,5.77
2018-07-19T07:32:54.042Z,5.60
2018-07-19T07:35:22.905Z,6.63
2018-07-19T07:37:51.525Z,6.27
2018-07-19T07:40:20.149Z,5.53
2018-07-19T07:42:48.863Z,5.80
2018-07-19T07:45:18.106Z,6.13
2018-07-19T07:47:46.721Z,6.07
2018-07-19T07:50:15.388Z,6.03
2018-07-19T07:52:43.987Z,6.30
2018-07-19T07:55:12.649Z,5.70
2018-07-19T07:57:41.315Z,5.70
2018-07-19T08:00:10.021Z,7.00
2018-07-19T08:02:38.733Z,5.73
2018-07-19T08:05:07.514Z,6.10
2018-07-19T08:07:36.194Z,5.83
2018-07-19T08:10:05.023Z,6.60
2018-07-19T08:12:33.629Z,6.00
2018-07-19T08:15:02.381Z,5.80
2018-07-19T08:17:31.301Z,6.40
2018-07-19T08:20:00.075Z,6.20
2018-07-19T08:22:28.934Z,5.50
2018-07-19T08:24:57.529Z,6.00
2018-07-19T08:27:26.341Z,6.30
2018-07-19T08:29:55.041Z,5.73
2018-07-19T08:32:23.685Z,5.77
2018-07-19T08:34:52.286Z,6.03
2018-07-19T08:37:20.978Z,6.93
2018-07-19T08:39:49.685Z,6.33
2018-07-19T08:42:18.319Z,6.63
2018-07-19T08:44:46.938Z,5.90
2018-07-19T08:47:16.300Z,6.13
2018-07-19T08:49:46.621Z,6.90
2018-07-19T08:52:15.471Z,6.70
2018-07-19T08:54:44.202Z,6.80
2018-07-19T08:57:12.930Z,6.33
2018-07-19T08:59:41.641Z,6.70
2018-07-19T09:02:10.295Z,6.60
2018-07-19T09:04:39.087Z,6.80
2018-07-19T09:07:07.762Z,6.07
2018-07-19T09:09:36.435Z,6.60
2018-07-19T09:12:05.171Z,6.93
2018-07-19T09:14:33.881Z,6.40
2018-07-19T09:17:02.566Z,6.50
2018-07-19T09:19:31.263Z,5.73
2018-07-19T09:21:59.882Z,6.27
2018-07-19T09:24:28.575Z,7.13
2018-07-19T09:26:57.277Z,7.43
2018-07-19T09:29:25.960Z,6.10
2018-07-19T09:31:55.035Z,5.70
2018-07-19T09:34:23.715Z,6.03
2018-07-19T09:36:52.514Z,5.37
2018-07-19T09:39:21.420Z,5.53
2018-07-19T09:41:50.116Z,5.97
2018-07-19T09:44:19.190Z,5.63
2018-07-19T09:46:48.334Z,6.30
2018-07-19T09:49:17.019Z,6.17
2018-07-19T09:51:45.635Z,5.83
2018-07-19T09:54:25.344Z,6.07
2018-07-19T09:56:53.981Z,6.50
2018-07-19T09:59:22.707Z,7.17
2018-07-19T10:01:51.326Z,5.43
2018-07-19T10:04:20.486Z,5.93
2018-07-19T10:06:49.089Z,5.40
2018-07-19T10:09:17.758Z,4.93
2018-07-19T10:11:46.406Z,5.67
2018-07-19T10:14:15.091Z,5.77
2018-07-19T10:16:43.712Z,5.00
2018-07-19T10:19:12.310Z,6.37
2018-07-19T10:21:41.146Z,6.40
2018-07-19T10:24:09.944Z,5.83
2018-07-19T10:26:38.656Z,5.90
2018-07-19T10:29:07.329Z,5.07
2018-07-19T10:31:36.002Z,5.10
2018-07-19T10:34:04.747Z,5.60
2018-07-19T10:36:33.437Z,5.70
2018-07-19T10:39:02.150Z,5.60
2018-07-19T10:41:31.125Z,6.07
2018-07-19T10:43:59.880Z,5.67
2018-07-19T10:46:28.555Z,5.30
2018-07-19T10:48:57.826Z,5.27
2018-07-19T10:51:26.610Z,5.30
2018-07-19T10:53:55.706Z,6.07
2018-07-19T10:56:24.375Z,5.93
2018-07-19T10:58:53.076Z,5.73
2018-07-19T11:01:21.792Z,5.50
2018-07-19T11:03:51.537Z,5.93
2018-07-19T11:06:20.323Z,4.83
2018-07-19T11:08:49.059Z,5.40
2018-07-19T11:11:18.009Z,4.70
2018-07-19T11:13:46.602Z,5.03
2018-07-19T11:16:15.277Z,5.20
2018-07-19T11:18:44.564Z,5.57
2018-07-19T11:21:13.345Z,4.90
2018-07-19T11:23:42.071Z,4.80
2018-07-19T11:26:10.809Z,4.93
2018-07-19T11:28:39.467Z,5.20
2018-07-19T11:31:08.157Z,5.43
2018-07-19T11:33:36.811Z,5.30
2018-07-19T11:36:05.586Z,4.93
2018-07-19T11:38:34.355Z,5.43
2018-07-19T11:41:03.055Z,5.23
2018-07-19T11:43:31.752Z,4.97
2018-07-19T11:46:00.402Z,5.10
2018-07-19T11:48:29.060Z,5.47
2018-07-19T11:50:57.760Z,5.43
2018-07-19T11:53:26.444Z,4.23
2018-07-19T11:55:55.057Z,5.37
2018-07-19T11:58:23.675Z,4.80
2018-07-19T12:00:52.323Z,5.63
2018-07-19T12:03:21.133Z,4.97
2018-07-19T12:05:49.788Z,4.93
2018-07-19T12:08:18.467Z,4.30
2018-07-19T12:10:47.079Z,4.83
2018-07-19T12:13:15.654Z,5.20
2018-07-19T12:15:44.300Z,5.23
2018-07-19T12:18:12.960Z,4.77
2018-07-19T12:20:41.984Z,5.87
2018-07-19T12:23:11.348Z,4.77
2018-07-19T12:25:40.182Z,4.77
2018-07-19T12:28:08.781Z,4.90
2018-07-19T12:30:37.502Z,5.57
2018-07-19T12:33:06.170Z,4.60
2018-07-19T12:35:34.809Z,5.43
2018-07-19T12:38:03.571Z,4.83
2018-07-19T12:40:32.441Z,4.83
2018-07-19T12:43:01.603Z,5.00
2018-07-19T12:45:30.406Z,4.67
2018-07-19T12:47:59.025Z,4.97
2018-07-19T12:50:28.202Z,4.63
2018-07-19T12:52:56.996Z,4.47
2018-07-19T12:55:25.606Z,4.20
2018-07-19T12:57:56.305Z,3.83
2018-07-19T13:00:24.950Z,4.30
2018-07-19T13:02:53.770Z,4.30
2018-07-19T13:05:23.019Z,4.10
2018-07-19T13:07:51.804Z,4.20
2018-07-19T13:10:20.526Z,4.70
2018-07-19T13:12:49.550Z,4.20
2018-07-19T13:15:18.329Z,4.20
2018-07-19T13:17:47.034Z,3.67
2018-07-19T13:20:15.982Z,4.80
2018-07-19T13:22:46.041Z,4.33
2018-07-19T13:25:14.959Z,4.33
2018-07-19T13:27:43.775Z,3.87
2018-07-19T13:30:14.078Z,4.63
2018-07-19T13:32:42.638Z,3.97
2018-07-19T13:35:12.303Z,3.50
2018-07-19T13:37:40.956Z,4.10
2018-07-19T13:40:09.623Z,3.73
2018-07-19T13:42:38.459Z,3.50
2018-07-19T13:45:07.305Z,4.00
2018-07-19T13:47:35.915Z,3.87
2018-07-19T13:50:05.085Z,4.00
2018-07-19T13:52:44.850Z,3.93
2018-07-19T13:55:13.510Z,4.17
2018-07-19T13:57:42.377Z,3.97
2018-07-19T14:00:11.091Z,4.00
2018-07-19T14:02:39.713Z,4.07
2018-07-19T14:05:08.642Z,3.93
2018-07-19T14:07:37.253Z,3.87
2018-07-19T14:10:05.851Z,4.10
2018-07-19T14:12:34.451Z,4.17
2018-07-19T14:15:03.045Z,3.60
2018-07-19T14:17:31.653Z,3.90
2018-07-19T14:20:00.244Z,3.73
2018-07-19T14:22:28.837Z,3.93
2018-07-19T14:24:58.522Z,3.70
2018-07-19T14:27:27.408Z,4.03
2018-07-19T14:29:56.076Z,3.67
2018-07-19T14:32:31.071Z,4.20
2018-07-19T14:35:00.303Z,3.43
2018-07-19T14:37:28.994Z,4.20
2018-07-19T14:39:57.645Z,2.90
2018-07-19T14:42:26.288Z,3.80
2018-07-19T14:44:54.914Z,3.50
2018-07-19T14:47:23.571Z,3.20
2018-07-19T14:49:52.199Z,2.97
2018-07-19T14:52:20.889Z,3.43
2018-07-19T14:54:49.494Z,2.80
2018-07-19T14:57:18.298Z,3.20
2018-07-19T14:59:46.963Z,3.30
2018-07-19T15:02:15.563Z,3.03
2018-07-19T15:04:44.260Z,3.00
2018-07-19T15:07:12.923Z,3.50
2018-07-19T15:09:43.854Z,3.33
2018-07-19T15:12:12.595Z,3.00
2018-07-19T15:14:41.459Z,2.80
2018-07-19T15:17:10.085Z,3.10
2018-07-19T15:19:39.591Z,3.47
2018-07-19T15:22:08.253Z,3.00
2018-07-19T15:24:37.006Z,3.17
2018-07-19T15:27:05.604Z,3.13
2018-07-19T15:29:34.351Z,2.80
2018-07-19T15:32:03.067Z,3.30
2018-07-19T15:34:31.829Z,3.10
2018-07-19T15:37:00.688Z,3.03
2018-07-19T15:39:29.524Z,2.70
2018-07-19T15:41:58.307Z,2.97
2018-07-19T15:44:28.090Z,3.07
2018-07-19T15:46:56.871Z,2.93
2018-07-19T15:49:25.608Z,3.00
2018-07-19T15:51:54.902Z,3.67
2018-07-19T15:54:23.654Z,3.40
2018-07-19T15:56:52.511Z,3.50
2018-07-19T15:59:21.185Z,2.97
2018-07-19T16:01:49.928Z,2.93
2018-07-19T16:04:18.590Z,3.23
2018-07-19T16:06:47.287Z,2.70
2018-07-19T16:09:15.935Z,2.70
2018-07-19T16:11:44.714Z,3.10
2018-07-19T16:14:13.770Z,3.30
2018-07-19T16:16:42.502Z,3.17
2018-07-19T16:19:11.112Z,3.20
2018-07-19T16:21:39.733Z,2.97
2018-07-19T16:24:08.759Z,3.00
2018-07-19T16:26:37.487Z,3.30
2018-07-19T16:29:06.306Z,3.30
2018-07-19T16:31:35.092Z,3.27
2018-07-19T16:34:04.148Z,3.20
2018-07-19T16:36:33.146Z,3.10
2018-07-19T16:39:02.105Z,3.07
2018-07-19T16:41:30.814Z,3.20
2018-07-19T16:44:00.315Z,3.13
2018-07-19T16:46:29.432Z,3.40
2018-07-19T16:48:58.155Z,3.40
2018-07-19T16:51:26.894Z,3.47
2018-07-19T16:53:55.658Z,3.10
2018-07-19T16:56:24.362Z,3.47
2018-07-19T16:58:53.123Z,3.60
2018-07-19T17:01:21.858Z,2.77
2018-07-19T17:03:50.642Z,3.20
2018-07-19T17:06:19.366Z,3.13
2018-07-19T17:08:48.928Z,3.23
2018-07-19T17:11:17.731Z,3.97
2018-07-19T17:13:46.418Z,3.50
2018-07-19T17:16:15.337Z,3.57
2018-07-19T17:18:44.402Z,3.30
2018-07-19T17:21:13.318Z,3.70
2018-07-19T17:23:42.079Z,3.70
2018-07-19T17:26:10.849Z,3.30
2018-07-19T17:28:39.536Z,3.50
2018-07-19T17:31:10.004Z,3.50
2018-07-19T17:33:38.846Z,3.53
2018-07-19T17:36:07.913Z,3.43
2018-07-19T17:38:36.818Z,3.03
2018-07-19T17:41:05.516Z,3.33
2018-07-19T17:43:34.250Z,2.87
2018-07-19T17:46:02.920Z,3.57
2018-07-19T17:48:31.602Z,3.50
2018-07-19T17:51:00.367Z,3.40
2018-07-19T17:53:29.916Z,3.70
2018-07-19T17:55:58.790Z,3.60
2018-07-19T17:58:28.120Z,3.47
2018-07-19T18:00:56.989Z,4.03
2018-07-19T18:03:25.634Z,4.10
2018-07-19T18:05:54.297Z,3.90
2018-07-19T18:08:23.121Z,4.10
2018-07-19T18:10:52.070Z,3.80
2018-07-19T18:13:20.710Z,4.13
2018-07-19T18:15:50.713Z,4.43
2018-07-19T18:18:19.767Z,4.00
2018-07-19T18:20:50.083Z,4.10
2018-07-19T18:23:18.832Z,4.17
2018-07-19T18:25:47.627Z,4.50
2018-07-19T18:28:16.831Z,4.60
2018-07-19T18:30:46.626Z,4.47
2018-07-19T18:33:20.969Z,4.33
2018-07-19T18:35:50.533Z,4.40
2018-07-19T18:38:19.513Z,4.50
2018-07-19T18:40:48.248Z,4.20
2018-07-19T18:43:17.517Z,4.40
2018-07-19T18:45:46.323Z,4.60
2018-07-19T18:48:15.016Z,5.13
2018-07-19T18:50:50.133Z,4.87
2018-07-19T18:53:18.894Z,4.80
2018-07-19T18:55:47.554Z,5.23
2018-07-19T18:58:16.384Z,4.70
2018-07-19T19:00:45.138Z,5.27
2018-07-19T19:03:13.873Z,5.20
2018-07-19T19:05:42.770Z,4.90
2018-07-19T19:08:11.608Z,5.20
2018-07-19T19:10:40.297Z,4.83
2018-07-19T19:13:09.120Z,5.33
2018-07-19T19:15:37.766Z,5.10
2018-07-19T19:18:06.540Z,5.33
2018-07-19T19:20:35.285Z,5.10
2018-07-19T19:23:03.954Z,4.27
2018-07-19T19:25:32.609Z,4.47
2018-07-19T19:28:01.277Z,4.60
2018-07-19T19:30:29.940Z,4.50
2018-07-19T19:32:58.906Z,4.57
2018-07-19T19:35:27.680Z,5.63
2018-07-19T19:37:56.317Z,5.83
2018-07-19T19:40:25.054Z,5.30
2018-07-19T19:42:53.825Z,5.10
2018-07-19T19:45:22.562Z,4.87
2018-07-19T19:47:51.620Z,4.73
2018-07-19T19:50:20.531Z,4.90
2018-07-19T19:52:49.823Z,5.80
2018-07-19T19:55:18.511Z,5.07
2018-07-19T19:57:48.127Z,4.80
2018-07-19T20:00:16.796Z,4.90
2018-07-19T20:02:45.509Z,5.60
2018-07-19T20:05:14.168Z,5.00
2018-07-19T20:07:43.104Z,4.60
2018-07-19T20:10:11.852Z,5.10
2018-07-19T20:12:40.550Z,5.50
2018-07-19T20:15:09.253Z,5.93
2018-07-19T20:17:37.919Z,5.40
2018-07-19T20:20:11.404Z,4.90
2018-07-19T20:22:40.262Z,5.43
2018-07-19T20:25:09.282Z,5.60
2018-07-19T20:27:38.029Z,6.50
2018-07-19T20:30:06.723Z,5.47
2018-07-19T20:32:36.033Z,5.60
2018-07-19T20:35:04.835Z,5.70
2018-07-19T20:37:33.624Z,6.47
2018-07-19T20:40:02.874Z,6.40
2018-07-19T20:42:31.557Z,5.17
2018-07-19T20:45:00.223Z,6.23
2018-07-19T20:47:30.036Z,5.77
2018-07-19T20:49:58.877Z,5.67
2018-07-19T20:52:27.700Z,6.20
2018-07-19T20:54:56.453Z,6.50
2018-07-19T20:57:25.115Z,6.13
2018-07-19T20:59:53.774Z,5.70
2018-07-19T21:02:22.491Z,6.27
2018-07-19T21:04:51.274Z,6.80
2018-07-19T21:07:20.066Z,7.10
2018-07-19T21:09:48.716Z,6.63
2018-07-19T21:12:17.462Z,6.40
2018-07-19T21:14:46.149Z,7.93
2018-07-19T21:17:14.888Z,7.00
2018-07-19T21:19:43.597Z,7.60
2018-07-19T21:22:12.396Z,7.10
2018-07-19T21:24:41.153Z,7.83
2018-07-19T21:27:11.779Z,8.10
2018-07-19T21:29:40.599Z,7.70
2018-07-19T21:32:09.336Z,7.83
2018-07-19T21:34:37.987Z,8.10
2018-07-19T21:37:06.833Z,7.50
2018-07-19T21:39:35.524Z,8.07
2018-07-19T21:42:06.149Z,8.97
2018-07-19T21:44:38.633Z,8.53
2018-07-19T22:00:02.620Z,8.47
2018-07-19T22:02:31.425Z,8.70
2018-07-19T22:05:00.659Z,7.80
2018-07-19T22:07:30.006Z,9.17
2018-07-19T22:09:58.888Z,8.97
2018-07-19T22:12:27.601Z,9.43
2018-07-19T22:14:56.250Z,8.17
2018-07-19T22:17:24.952Z,7.70
2018-07-19T22:19:53.651Z,7.90
2018-07-19T22:22:22.400Z,8.07
2018-07-19T22:24:51.063Z,7.77
2018-07-19T22:27:19.678Z,7.77
2018-07-19T22:29:48.373Z,7.57
2018-07-19T22:32:17.044Z,7.50
2018-07-19T22:34:45.643Z,7.67
2018-07-19T22:37:14.281Z,8.13
2018-07-19T22:39:43.015Z,7.97
2018-07-19T22:42:11.656Z,7.80
2018-07-19T22:44:40.414Z,8.07
2018-07-19T22:47:09.130Z,7.90
2018-07-19T22:49:37.762Z,8.80
2018-07-19T22:52:06.422Z,7.90
2018-07-19T22:54:35.040Z,8.70
2018-07-19T22:57:03.714Z,9.17
2018-07-19T22:59:33.162Z,8.03
2018-07-19T23:02:01.817Z,8.70
2018-07-19T23:04:30.518Z,7.97
2018-07-19T23:06:59.265Z,8.53
2018-07-19T23:09:28.023Z,8.90
2018-07-19T23:11:56.701Z,9.20
2018-07-19T23:14:25.376Z,8.70
2018-07-19T23:16:54.101Z,8.83
2018-07-19T23:19:22.768Z,8.23
2018-07-19T23:21:51.536Z,7.73
2018-07-19T23:24:20.387Z,8.57
2018-07-19T23:26:49.216Z,9.67
2018-07-19T23:29:18.021Z,8.80
2018-07-19T23:31:46.734Z,8.67
2018-07-19T23:34:16.113Z,8.73
2018-07-19T23:36:48.393Z,8.23
2018-07-19T23:39:51.130Z,7.77
2018-07-19T23:42:28.614Z,9.40
2018-07-19T23:45:08.218Z,8.03
2018-07-19T23:47:39.021Z,9.00
2018-07-19T23:50:07.728Z,8.00
2018-07-19T23:52:36.371Z,8.80
2018-07-19T23:55:05.201Z,8.40
2018-07-19T23:57:33.876Z,9.57
